Time;durP1;ratioP1;P1;durP2;ratioP2;P2;SDS_P1;SDS_P2;PMS_P1;PMS_P2;Temp;Humidity;BMP_temperature;BMP_pressure;BME280_temperature;BME280_humidity;BME280_pressure;Samples;Min_cycle;Max_cycle;Signal;HPM_P1;HPM_P2
2023/06/07 00:02:19;;;;;;;9.10;8.20;;;;;;;;;;5083866;28;20451;-75
2023/06/07 00:04:46;;;;;;;9.40;8.43;;;;;;;;;;5086110;28;20462;-76
2023/06/07 00:07:13;;;;;;;9.40;8.50;;;;;;;;;;5072502;28;20818;-75
2023/06/07 00:09:41;;;;;;;9.17;8.30;;;;;;;;;;5088259;28;20490;-76
2023/06/07 00:12:10;;;;;;;8.87;8.00;;;;;;;;;;5092707;28;20974;-75
2023/06/07 00:14:37;;;;;;;9.47;8.33;;;;;;;;;;5092744;28;20954;-75
2023/06/07 00:17:04;;;;;;;9.23;8.30;;;;;;;;;;5092807;28;20447;-76
2023/06/07 00:19:31;;;;;;;8.57;7.77;;;;;;;;;;5092226;28;20486;-76
2023/06/07 00:22:00;;;;;;;10.07;9.10;;;;;;;;;;5092664;28;20462;-76
2023/06/07 00:24:27;;;;;;;9.47;8.47;;;;;;;;;;5092373;28;20504;-75
2023/06/07 00:26:54;;;;;;;11.30;9.87;;;;;;;;;;5092587;28;20458;-75
2023/06/07 00:29:23;;;;;;;9.43;8.57;;;;;;;;;;5092086;28;20465;-76
2023/06/07 00:31:50;;;;;;;8.97;8.07;;;;;;;;;;5092460;28;20948;-75
2023/06/07 00:34:17;;;;;;;10.33;8.67;;;;;;;;;;5093773;28;20496;-75
2023/06/07 00:36:44;;;;;;;9.80;8.90;;;;;;;;;;5096773;28;20818;-75
2023/06/07 00:39:11;;;;;;;11.33;9.73;;;;;;;;;;5095783;28;20496;-76
2023/06/07 00:41:39;;;;;;;10.60;9.60;;;;;;;;;;5096359;28;20453;-75
2023/06/07 00:44:06;;;;;;;10.30;9.20;;;;;;;;;;5096050;28;20455;-75
2023/06/07 00:46:34;;;;;;;10.67;9.57;;;;;;;;;;5096556;28;20894;-75
2023/06/07 00:49:01;;;;;;;9.57;8.67;;;;;;;;;;5095390;28;20462;-76
2023/06/07 00:51:30;;;;;;;9.87;8.97;;;;;;;;;;5096146;28;20453;-75
2023/06/07 00:53:59;;;;;;;12.53;10.90;;;;;;;;;;5095956;28;20447;-75
2023/06/07 00:56:26;;;;;;;11.53;9.53;;;;;;;;;;5095655;28;20470;-75
2023/06/07 00:58:53;;;;;;;10.37;9.37;;;;;;;;;;5095666;28;20895;-75
2023/06/07 01:01:21;;;;;;;12.50;11.23;;;;;;;;;;5095615;28;20944;-75
2023/06/07 01:03:49;;;;;;;10.40;9.30;;;;;;;;;;5095919;28;20458;-76
2023/06/07 01:06:16;;;;;;;11.33;10.23;;;;;;;;;;5095286;28;20447;-76
2023/06/07 01:08:45;;;;;;;10.90;9.80;;;;;;;;;;5095590;28;20947;-76
2023/06/07 01:11:12;;;;;;;13.77;10.03;;;;;;;;;;5095599;28;20443;-75
2023/06/07 01:13:40;;;;;;;12.47;10.30;;;;;;;;;;5095930;28;20474;-75
2023/06/07 01:16:08;;;;;;;10.83;9.87;;;;;;;;;;5095567;28;20451;-75
2023/06/07 01:18:35;;;;;;;15.20;11.97;;;;;;;;;;5095539;28;20447;-76
2023/06/07 01:21:04;;;;;;;10.63;9.63;;;;;;;;;;5092172;28;20460;-75
2023/06/07 01:23:33;;;;;;;12.00;10.33;;;;;;;;;;5085864;28;20982;-75
2023/06/07 01:26:00;;;;;;;12.97;10.57;;;;;;;;;;5095431;28;20450;-75
2023/06/07 01:28:28;;;;;;;11.27;10.17;;;;;;;;;;5095006;28;20453;-76
2023/06/07 01:30:56;;;;;;;12.37;11.00;;;;;;;;;;5095030;28;20471;-76
2023/06/07 01:33:24;;;;;;;11.30;10.10;;;;;;;;;;5095322;28;20473;-75
2023/06/07 01:35:53;;;;;;;13.50;11.13;;;;;;;;;;5095139;28;20542;-75
2023/06/07 01:38:20;;;;;;;13.93;12.47;;;;;;;;;;5082509;28;20455;-75
2023/06/07 01:40:49;;;;;;;15.53;12.70;;;;;;;;;;5094275;28;20498;-75
2023/06/07 01:43:17;;;;;;;19.60;9.93;;;;;;;;;;5095120;28;20478;-75
2023/06/07 01:45:46;;;;;;;12.40;10.63;;;;;;;;;;5094889;28;20447;-75
2023/06/07 01:48:13;;;;;;;10.90;9.77;;;;;;;;;;5094226;28;20446;-75
2023/06/07 01:50:40;;;;;;;13.10;11.53;;;;;;;;;;5095100;28;20979;-75
2023/06/07 01:53:07;;;;;;;15.00;9.77;;;;;;;;;;5094147;28;20473;-75
2023/06/07 01:55:34;;;;;;;12.27;11.00;;;;;;;;;;5082487;28;20486;-76
2023/06/07 01:58:07;;;;;;;13.67;10.00;;;;;;;;;;5094322;28;20454;-75
2023/06/07 02:00:36;;;;;;;13.13;10.30;;;;;;;;;;5094253;28;21015;-74
2023/06/07 02:03:08;;;;;;;17.97;15.00;;;;;;;;;;5094637;28;20454;-75
2023/06/07 02:05:35;;;;;;;12.70;10.67;;;;;;;;;;5094841;28;20451;-75
2023/06/07 02:08:05;;;;;;;11.37;10.27;;;;;;;;;;5094360;28;20454;-75
2023/06/07 02:10:33;;;;;;;13.07;10.70;;;;;;;;;;5094386;28;20462;-76
2023/06/07 02:13:01;;;;;;;11.23;9.20;;;;;;;;;;5094699;28;20455;-75
2023/06/07 02:15:30;;;;;;;12.80;11.60;;;;;;;;;;5094449;28;20457;-75
2023/06/07 02:18:01;;;;;;;11.43;10.20;;;;;;;;;;5094524;28;20446;-75
2023/06/07 02:20:28;;;;;;;10.17;9.23;;;;;;;;;;5093996;28;20493;-75
2023/06/07 02:22:55;;;;;;;11.17;10.03;;;;;;;;;;5094257;28;20439;-75
2023/06/07 02:25:23;;;;;;;11.77;10.60;;;;;;;;;;5094261;28;20563;-75
2023/06/07 02:27:50;;;;;;;12.80;10.10;;;;;;;;;;5094149;28;20447;-75
2023/06/07 02:30:17;;;;;;;11.30;10.30;;;;;;;;;;5082430;28;20529;-75
2023/06/07 02:32:48;;;;;;;12.87;11.17;;;;;;;;;;5092460;28;20450;-75
2023/06/07 02:35:16;;;;;;;10.90;9.80;;;;;;;;;;5094081;28;20866;-75
2023/06/07 02:37:43;;;;;;;13.80;12.40;;;;;;;;;;5094030;28;21099;-75
2023/06/07 02:40:10;;;;;;;16.03;13.03;;;;;;;;;;5093690;28;20897;-75
2023/06/07 02:42:38;;;;;;;12.50;11.03;;;;;;;;;;5094178;28;20494;-75
2023/06/07 02:45:05;;;;;;;16.93;12.07;;;;;;;;;;5093778;28;20463;-75
2023/06/07 02:47:33;;;;;;;22.20;12.07;;;;;;;;;;5080546;28;20454;-75
2023/06/07 02:50:02;;;;;;;15.10;13.13;;;;;;;;;;5093468;28;20471;-76
2023/06/07 02:52:29;;;;;;;14.57;12.70;;;;;;;;;;5086184;28;20460;-75
2023/06/07 02:54:56;;;;;;;13.10;11.70;;;;;;;;;;5088088;28;20462;-75
2023/06/07 02:57:23;;;;;;;13.93;11.63;;;;;;;;;;5092966;28;20466;-75
2023/06/07 02:59:52;;;;;;;15.73;12.60;;;;;;;;;;5091795;28;20498;-75
2023/06/07 03:02:19;;;;;;;13.90;12.50;;;;;;;;;;5082338;28;20470;-76
2023/06/07 03:04:47;;;;;;;14.43;13.03;;;;;;;;;;5093723;28;20568;-76
2023/06/07 03:07:15;;;;;;;20.17;12.60;;;;;;;;;;5093542;28;20447;-76
2023/06/07 03:09:43;;;;;;;14.17;12.77;;;;;;;;;;5093143;28;20478;-75
2023/06/07 03:12:11;;;;;;;15.63;12.20;;;;;;;;;;5093599;28;20823;-75
2023/06/07 03:14:38;;;;;;;17.90;15.17;;;;;;;;;;5093448;28;20450;-76
2023/06/07 03:17:08;;;;;;;15.80;13.60;;;;;;;;;;5093155;28;20443;-76
2023/06/07 03:19:35;;;;;;;16.93;13.47;;;;;;;;;;5092036;28;20487;-76
2023/06/07 03:22:06;;;;;;;15.10;13.63;;;;;;;;;;5092427;28;20451;-75
2023/06/07 03:24:36;;;;;;;15.60;14.03;;;;;;;;;;5092466;28;20443;-75
2023/06/07 03:27:03;;;;;;;15.67;14.10;;;;;;;;;;5092958;28;20447;-75
2023/06/07 03:29:31;;;;;;;15.33;13.80;;;;;;;;;;5092386;28;20466;-75
2023/06/07 03:31:58;;;;;;;14.97;13.50;;;;;;;;;;5092871;28;20482;-76
2023/06/07 03:34:29;;;;;;;15.30;13.70;;;;;;;;;;5086465;28;20451;-75
2023/06/07 03:36:56;;;;;;;14.63;12.87;;;;;;;;;;5072492;28;20503;-75
2023/06/07 03:39:23;;;;;;;13.83;12.43;;;;;;;;;;5091998;28;20470;-76
2023/06/07 03:41:52;;;;;;;14.30;12.97;;;;;;;;;;5092292;28;20462;-75
2023/06/07 03:44:19;;;;;;;13.87;12.47;;;;;;;;;;5092243;28;20462;-76
2023/06/07 03:46:46;;;;;;;14.80;12.57;;;;;;;;;;5092825;28;20978;-73
2023/06/07 03:49:13;;;;;;;11.37;10.03;;;;;;;;;;5092778;28;20833;-73
2023/06/07 03:51:42;;;;;;;13.00;11.70;;;;;;;;;;5092914;28;20443;-73
2023/06/07 03:54:10;;;;;;;11.30;10.20;;;;;;;;;;5092971;28;20460;-73
2023/06/07 03:56:37;;;;;;;13.63;11.37;;;;;;;;;;5092686;28;20497;-73
2023/06/07 03:59:06;;;;;;;12.97;11.67;;;;;;;;;;5092765;28;20474;-73
2023/06/07 04:01:33;;;;;;;14.13;11.30;;;;;;;;;;5092651;28;20478;-73
2023/06/07 04:04:01;;;;;;;12.37;11.10;;;;;;;;;;5092735;28;20458;-73
2023/06/07 04:06:28;;;;;;;12.43;11.20;;;;;;;;;;5092808;28;20438;-73
2023/06/07 04:08:56;;;;;;;14.07;11.87;;;;;;;;;;5093481;28;20454;-73
2023/06/07 04:11:26;;;;;;;13.77;12.37;;;;;;;;;;5096608;28;20447;-73
2023/06/07 04:13:53;;;;;;;18.07;13.63;;;;;;;;;;5096853;28;21001;-73
2023/06/07 04:16:21;;;;;;;16.40;14.90;;;;;;;;;;5096946;28;20864;-73
2023/06/07 04:18:48;;;;;;;13.30;11.90;;;;;;;;;;5096353;28;20450;-73
2023/06/07 04:21:15;;;;;;;12.47;11.27;;;;;;;;;;5096685;28;20978;-73
2023/06/07 04:23:43;;;;;;;12.50;10.50;;;;;;;;;;5096970;28;20455;-73
2023/06/07 04:26:10;;;;;;;12.10;10.67;;;;;;;;;;5096634;28;20446;-73
2023/06/07 04:28:37;;;;;;;14.30;9.40;;;;;;;;;;5096222;28;20451;-73
2023/06/07 04:31:08;;;;;;;9.57;8.70;;;;;;;;;;5096514;28;20490;-73
2023/06/07 04:33:37;;;;;;;9.10;8.20;;;;;;;;;;5096312;28;20496;-73
2023/06/07 04:36:04;;;;;;;8.50;7.70;;;;;;;;;;5096032;28;20450;-73
2023/06/07 04:38:31;;;;;;;8.70;7.83;;;;;;;;;;5096453;28;20450;-73
2023/06/07 04:41:00;;;;;;;8.33;7.63;;;;;;;;;;5096245;28;20501;-73
2023/06/07 04:43:28;;;;;;;8.23;6.63;;;;;;;;;;5096073;28;20446;-73
2023/06/07 04:45:55;;;;;;;7.60;6.90;;;;;;;;;;5096099;28;20473;-73
2023/06/07 04:48:24;;;;;;;7.40;6.80;;;;;;;;;;5096190;28;20446;-73
2023/06/07 04:50:53;;;;;;;7.67;6.97;;;;;;;;;;5096284;28;20463;-73
2023/06/07 04:53:21;;;;;;;9.20;8.40;;;;;;;;;;5096173;28;20897;-73
2023/06/07 04:55:48;;;;;;;11.40;8.00;;;;;;;;;;5095976;28;20459;-73
2023/06/07 04:58:16;;;;;;;8.10;7.40;;;;;;;;;;5096188;28;20470;-73
2023/06/07 05:00:43;;;;;;;7.63;6.93;;;;;;;;;;5095726;28;20498;-73
2023/06/07 05:03:13;;;;;;;7.73;6.90;;;;;;;;;;5095817;28;20468;-73
2023/06/07 05:05:41;;;;;;;9.63;8.70;;;;;;;;;;5095664;28;20549;-74
2023/06/07 05:08:09;;;;;;;6.97;6.30;;;;;;;;;;5095843;28;20939;-74
2023/06/07 05:10:36;;;;;;;7.90;6.57;;;;;;;;;;5095702;28;20478;-74
2023/06/07 05:13:03;;;;;;;6.40;5.80;;;;;;;;;;5095540;28;20451;-74
2023/06/07 05:15:31;;;;;;;9.50;6.70;;;;;;;;;;5095829;28;20442;-74
2023/06/07 05:17:59;;;;;;;11.23;6.50;;;;;;;;;;5095779;28;20595;-74
2023/06/07 05:20:27;;;;;;;9.63;5.87;;;;;;;;;;5094649;28;20487;-74
2023/06/07 05:22:54;;;;;;;5.97;5.50;;;;;;;;;;5095271;28;20558;-74
2023/06/07 05:25:22;;;;;;;9.50;6.40;;;;;;;;;;5095576;28;20451;-74
2023/06/07 05:27:49;;;;;;;8.10;5.50;;;;;;;;;;5095497;28;20960;-74
2023/06/07 05:30:17;;;;;;;7.60;5.33;;;;;;;;;;5095414;28;20494;-74
2023/06/07 05:32:44;;;;;;;6.53;5.80;;;;;;;;;;5095344;28;20520;-74
2023/06/07 05:35:11;;;;;;;4.70;4.30;;;;;;;;;;5095071;28;20450;-74
2023/06/07 05:37:39;;;;;;;5.83;5.10;;;;;;;;;;5094987;28;20480;-74
2023/06/07 05:40:08;;;;;;;6.27;5.20;;;;;;;;;;5094838;28;21009;-74
2023/06/07 05:42:38;;;;;;;8.63;5.83;;;;;;;;;;5095097;28;20454;-74
2023/06/07 05:45:06;;;;;;;6.03;5.40;;;;;;;;;;5095287;28;20462;-74
2023/06/07 05:47:34;;;;;;;5.67;5.23;;;;;;;;;;5094781;28;20458;-74
2023/06/07 05:50:01;;;;;;;6.50;5.83;;;;;;;;;;5095112;28;20819;-74
2023/06/07 05:52:28;;;;;;;6.10;5.50;;;;;;;;;;5094983;28;20454;-74
2023/06/07 05:54:57;;;;;;;6.40;5.80;;;;;;;;;;5094941;28;20916;-74
2023/06/07 05:57:24;;;;;;;6.43;5.03;;;;;;;;;;5085493;28;20523;-74
2023/06/07 05:59:53;;;;;;;6.40;5.80;;;;;;;;;;5074437;28;20479;-74
2023/06/07 06:02:20;;;;;;;6.13;5.53;;;;;;;;;;5074262;28;20459;-74
2023/06/07 06:04:48;;;;;;;6.17;5.73;;;;;;;;;;5074573;28;20455;-74
2023/06/07 06:07:17;;;;;;;7.00;5.40;;;;;;;;;;5074577;28;20936;-74
2023/06/07 06:09:44;;;;;;;6.17;5.57;;;;;;;;;;5074340;28;20473;-74
2023/06/07 06:12:11;;;;;;;6.27;5.20;;;;;;;;;;5074413;28;20939;-74
2023/06/07 06:14:38;;;;;;;5.47;4.97;;;;;;;;;;5074376;28;20463;-74
2023/06/07 06:17:07;;;;;;;6.33;5.83;;;;;;;;;;5074266;28;20822;-74
2023/06/07 06:19:34;;;;;;;6.70;5.17;;;;;;;;;;5074213;28;21018;-74
2023/06/07 06:22:02;;;;;;;6.90;5.87;;;;;;;;;;5073953;28;20491;-74
2023/06/07 06:24:29;;;;;;;5.90;5.30;;;;;;;;;;5074180;28;20432;-74
2023/06/07 06:26:56;;;;;;;6.47;5.80;;;;;;;;;;5074103;28;20962;-74
2023/06/07 06:29:23;;;;;;;6.90;5.90;;;;;;;;;;5073968;28;20471;-74
2023/06/07 06:31:50;;;;;;;5.93;5.47;;;;;;;;;;5073741;28;20447;-74
2023/06/07 06:34:19;;;;;;;6.00;5.50;;;;;;;;;;5073984;28;20804;-74
2023/06/07 06:36:48;;;;;;;6.60;6.10;;;;;;;;;;5073779;28;20549;-74
2023/06/07 06:39:15;;;;;;;8.03;6.03;;;;;;;;;;5073687;28;20816;-74
2023/06/07 06:41:42;;;;;;;7.80;5.43;;;;;;;;;;5086938;28;20886;-74
2023/06/07 06:44:10;;;;;;;6.67;6.07;;;;;;;;;;5093978;28;20450;-74
2023/06/07 06:46:37;;;;;;;7.73;6.30;;;;;;;;;;5094270;28;20446;-74
2023/06/07 06:49:04;;;;;;;7.33;6.50;;;;;;;;;;5093879;28;20531;-74
2023/06/07 06:51:33;;;;;;;6.67;6.07;;;;;;;;;;5094079;28;20921;-74
2023/06/07 06:54:00;;;;;;;7.30;6.60;;;;;;;;;;5093403;28;20464;-74
2023/06/07 06:56:27;;;;;;;6.67;6.03;;;;;;;;;;5093558;28;20918;-74
2023/06/07 06:58:54;;;;;;;7.13;6.43;;;;;;;;;;5093679;28;20450;-74
2023/06/07 07:01:21;;;;;;;6.60;5.90;;;;;;;;;;5093694;28;20478;-74
2023/06/07 07:03:48;;;;;;;6.23;5.63;;;;;;;;;;5093430;28;20469;-74
2023/06/07 07:06:16;;;;;;;6.53;5.90;;;;;;;;;;5093367;28;20476;-74
2023/06/07 07:08:45;;;;;;;6.77;6.07;;;;;;;;;;5093181;28;20450;-74
2023/06/07 07:11:12;;;;;;;8.53;6.70;;;;;;;;;;5093306;28;20443;-74
2023/06/07 07:13:39;;;;;;;7.93;5.70;;;;;;;;;;5093473;28;21003;-74
2023/06/07 07:16:06;;;;;;;7.07;6.37;;;;;;;;;;5093104;28;20457;-74
2023/06/07 07:18:33;;;;;;;9.13;6.37;;;;;;;;;;5093528;28;20461;-74
2023/06/07 07:21:00;;;;;;;5.80;5.30;;;;;;;;;;5090917;28;20489;-74
2023/06/07 07:23:27;;;;;;;7.17;6.57;;;;;;;;;;5072818;28;20963;-74
2023/06/07 07:25:56;;;;;;;7.73;7.03;;;;;;;;;;5073038;28;20459;-74
2023/06/07 07:28:23;;;;;;;10.20;7.40;;;;;;;;;;5072588;28;20462;-74
2023/06/07 07:30:50;;;;;;;7.20;6.57;;;;;;;;;;5075595;28;20981;-74
2023/06/07 07:33:17;;;;;;;6.83;6.23;;;;;;;;;;5093122;28;20450;-74
2023/06/07 07:35:44;;;;;;;6.47;6.03;;;;;;;;;;5079383;28;20438;-74
2023/06/07 07:38:15;;;;;;;6.50;5.90;;;;;;;;;;5092480;28;20450;-74
2023/06/07 07:40:43;;;;;;;7.70;6.23;;;;;;;;;;5092651;28;20991;-74
2023/06/07 07:43:12;;;;;;;6.03;5.63;;;;;;;;;;5092285;28;20454;-74
2023/06/07 07:45:39;;;;;;;6.67;6.17;;;;;;;;;;5088284;28;20451;-74
2023/06/07 07:48:06;;;;;;;6.30;5.80;;;;;;;;;;5072937;28;20811;-74
2023/06/07 07:50:37;;;;;;;7.93;4.83;;;;;;;;;;5077343;28;20478;-74
2023/06/07 07:53:05;;;;;;;6.40;5.90;;;;;;;;;;5092748;28;20446;-74
2023/06/07 07:55:34;;;;;;;6.47;5.93;;;;;;;;;;5092485;28;20512;-74
2023/06/07 07:58:01;;;;;;;6.60;6.10;;;;;;;;;;5079122;28;20451;-74
2023/06/07 08:00:30;;;;;;;6.00;5.50;;;;;;;;;;5072187;28;20492;-74
2023/06/07 08:02:57;;;;;;;6.23;5.60;;;;;;;;;;5072534;28;20493;-74
2023/06/07 08:05:24;;;;;;;5.97;5.37;;;;;;;;;;5072181;28;20458;-74
2023/06/07 08:07:52;;;;;;;5.70;5.20;;;;;;;;;;5072611;28;20971;-74
2023/06/07 08:10:19;;;;;;;5.73;4.90;;;;;;;;;;5080082;28;21046;-74
2023/06/07 08:12:47;;;;;;;5.07;4.70;;;;;;;;;;5092376;28;20442;-74
2023/06/07 08:15:14;;;;;;;5.00;4.57;;;;;;;;;;5092630;28;20453;-74
2023/06/07 08:17:42;;;;;;;4.90;4.50;;;;;;;;;;5092636;28;20453;-74
2023/06/07 08:20:10;;;;;;;6.20;5.70;;;;;;;;;;5092289;28;20470;-74
2023/06/07 08:22:38;;;;;;;5.70;5.30;;;;;;;;;;5092545;28;20570;-74
2023/06/07 08:25:05;;;;;;;6.50;5.30;;;;;;;;;;5092727;28;20454;-74
2023/06/07 08:27:32;;;;;;;5.30;4.73;;;;;;;;;;5092274;28;20450;-74
2023/06/07 08:29:59;;;;;;;4.80;4.40;;;;;;;;;;5092447;28;20841;-74
2023/06/07 08:32:26;;;;;;;7.80;5.50;;;;;;;;;;5092589;28;20453;-74
2023/06/07 08:34:55;;;;;;;5.43;4.93;;;;;;;;;;5092637;28;20967;-74
2023/06/07 08:37:22;;;;;;;8.53;5.17;;;;;;;;;;5092558;28;20928;-74
2023/06/07 08:39:50;;;;;;;4.80;4.47;;;;;;;;;;5092413;28;20852;-74
2023/06/07 08:42:17;;;;;;;4.87;4.47;;;;;;;;;;5092420;28;20482;-74
2023/06/07 08:44:44;;;;;;;4.67;4.33;;;;;;;;;;5092119;28;20537;-74
2023/06/07 08:47:13;;;;;;;5.00;4.50;;;;;;;;;;5092694;28;20810;-74
2023/06/07 08:49:41;;;;;;;4.70;3.83;;;;;;;;;;5092259;28;20850;-74
2023/06/07 08:52:10;;;;;;;6.50;5.13;;;;;;;;;;5092207;28;20435;-74
2023/06/07 08:54:42;;;;;;;6.13;5.20;;;;;;;;;;5092761;28;20557;-73
2023/06/07 08:57:10;;;;;;;5.17;4.77;;;;;;;;;;5095871;28;20951;-74
2023/06/07 08:59:37;;;;;;;4.53;4.20;;;;;;;;;;5096000;28;20577;-74
2023/06/07 09:02:05;;;;;;;6.40;4.83;;;;;;;;;;5096047;28;20848;-74
2023/06/07 09:04:34;;;;;;;4.90;4.50;;;;;;;;;;5096044;28;20431;-74
2023/06/07 09:07:03;;;;;;;4.33;4.00;;;;;;;;;;5095961;28;20557;-74
2023/06/07 09:09:32;;;;;;;6.40;4.60;;;;;;;;;;5095806;28;20482;-74
2023/06/07 09:11:59;;;;;;;6.30;4.13;;;;;;;;;;5095709;28;20459;-74
2023/06/07 09:14:28;;;;;;;4.50;4.10;;;;;;;;;;5095386;28;20455;-74
2023/06/07 09:16:55;;;;;;;6.10;4.97;;;;;;;;;;5095801;28;20982;-74
2023/06/07 09:19:33;;;;;;;4.00;3.70;;;;;;;;;;5095560;28;20471;-74
2023/06/07 09:22:00;;;;;;;5.60;5.03;;;;;;;;;;5095452;28;20470;-74
2023/06/07 09:24:28;;;;;;;4.20;3.80;;;;;;;;;;5095599;28;20946;-74
2023/06/07 09:26:57;;;;;;;5.07;4.60;;;;;;;;;;5095555;28;20466;-74
2023/06/07 09:29:27;;;;;;;6.77;4.90;;;;;;;;;;5090173;28;20833;-74
2023/06/07 09:31:55;;;;;;;4.53;4.23;;;;;;;;;;5075381;28;20444;-75
2023/06/07 09:34:22;;;;;;;5.00;4.50;;;;;;;;;;5074675;28;20542;-74
2023/06/07 09:36:50;;;;;;;4.37;4.07;;;;;;;;;;5074819;28;20448;-74
2023/06/07 09:39:21;;;;;;;4.70;4.30;;;;;;;;;;5075135;28;20511;-74
2023/06/07 09:41:48;;;;;;;5.93;4.40;;;;;;;;;;5074944;28;20886;-74
2023/06/07 09:44:23;;;;;;;6.33;4.77;;;;;;;;;;5074928;28;20451;-74
2023/06/07 09:46:51;;;;;;;5.37;4.87;;;;;;;;;;5076134;28;20440;-74
2023/06/07 09:49:24;;;;;;;5.00;4.70;;;;;;;;;;5095112;28;20893;-74
2023/06/07 09:51:53;;;;;;;5.13;4.63;;;;;;;;;;5094962;28;20461;-74
2023/06/07 09:54:21;;;;;;;5.67;4.77;;;;;;;;;;5094711;28;20447;-74
2023/06/07 09:56:48;;;;;;;4.60;4.20;;;;;;;;;;5094670;28;20870;-74
2023/06/07 09:59:16;;;;;;;4.57;4.27;;;;;;;;;;5094781;28;20475;-74
2023/06/07 10:01:46;;;;;;;4.67;3.97;;;;;;;;;;5094708;28;20466;-74
2023/06/07 10:04:14;;;;;;;4.60;4.20;;;;;;;;;;5094579;28;20450;-74
2023/06/07 10:06:42;;;;;;;6.43;4.40;;;;;;;;;;5094630;28;20807;-74
2023/06/07 10:09:10;;;;;;;4.87;3.80;;;;;;;;;;5094612;28;20470;-74
2023/06/07 10:11:37;;;;;;;4.17;3.80;;;;;;;;;;5094328;28;20457;-74
2023/06/07 10:14:07;;;;;;;4.33;3.93;;;;;;;;;;5094586;28;20446;-74
2023/06/07 10:16:36;;;;;;;6.00;3.67;;;;;;;;;;5094240;28;20450;-74
2023/06/07 10:19:09;;;;;;;3.60;3.30;;;;;;;;;;5094241;28;20466;-76
2023/06/07 10:21:37;;;;;;;4.60;3.90;;;;;;;;;;5094469;28;20830;-74
2023/06/07 10:24:10;;;;;;;4.27;3.90;;;;;;;;;;5094391;28;20455;-74
2023/06/07 10:26:40;;;;;;;4.03;3.70;;;;;;;;;;5094524;28;20512;-74
2023/06/07 10:29:08;;;;;;;4.40;3.70;;;;;;;;;;5093710;28;20477;-74
2023/06/07 10:31:37;;;;;;;3.63;3.33;;;;;;;;;;5093854;28;20953;-74
2023/06/07 10:34:07;;;;;;;7.63;3.90;;;;;;;;;;5094189;28;20529;-74
2023/06/07 10:36:36;;;;;;;4.40;3.50;;;;;;;;;;5094182;28;20562;-74
2023/06/07 10:39:03;;;;;;;4.87;4.47;;;;;;;;;;5089612;28;20490;-74
2023/06/07 10:41:31;;;;;;;7.90;4.10;;;;;;;;;;5073666;28;20469;-74
2023/06/07 10:43:58;;;;;;;4.30;3.57;;;;;;;;;;5078568;28;20482;-76
2023/06/07 10:46:26;;;;;;;5.17;3.77;;;;;;;;;;5093937;28;20525;-74
2023/06/07 10:48:54;;;;;;;3.60;3.30;;;;;;;;;;5093901;28;20443;-74
2023/06/07 10:51:36;;;;;;;4.13;3.83;;;;;;;;;;5093562;28;20449;-74
2023/06/07 10:54:06;;;;;;;3.70;3.40;;;;;;;;;;5093213;28;20447;-74
2023/06/07 10:56:33;;;;;;;4.10;3.80;;;;;;;;;;5078528;28;20456;-74
2023/06/07 10:59:15;;;;;;;4.87;4.00;;;;;;;;;;5073253;28;20474;-74
2023/06/07 11:01:43;;;;;;;4.13;3.83;;;;;;;;;;5076642;28;20451;-74
2023/06/07 11:04:44;;;;;;;3.67;3.30;;;;;;;;;;5093738;28;21006;-74
2023/06/07 11:07:18;;;;;;;3.70;3.40;;;;;;;;;;5093173;28;20462;-74
2023/06/07 11:09:48;;;;;;;3.90;3.60;;;;;;;;;;5093400;28;20749;-74
2023/06/07 11:12:48;;;;;;;5.30;3.53;;;;;;;;;;5093569;28;20503;-74
2023/06/07 11:15:25;;;;;;;3.90;3.60;;;;;;;;;;5092900;28;20458;-74
2023/06/07 11:17:53;;;;;;;3.63;3.30;;;;;;;;;;5093011;28;20530;-74
2023/06/07 11:20:35;;;;;;;3.50;3.20;;;;;;;;;;5092963;28;20466;-74
2023/06/07 11:23:20;;;;;;;7.17;3.80;;;;;;;;;;5080386;28;20489;-74
2023/06/07 11:25:49;;;;;;;3.70;3.00;;;;;;;;;;5092931;28;20529;-75
2023/06/07 11:28:17;;;;;;;3.40;3.10;;;;;;;;;;5083118;28;20455;-74
2023/06/07 11:30:44;;;;;;;6.23;3.17;;;;;;;;;;5089575;28;20474;-74
2023/06/07 11:33:15;;;;;;;4.40;3.73;;;;;;;;;;5093212;28;20466;-74
2023/06/07 11:35:42;;;;;;;4.40;4.00;;;;;;;;;;5093356;28;20455;-74
2023/06/07 11:38:10;;;;;;;4.13;3.43;;;;;;;;;;5093058;28;20932;-75
2023/06/07 11:40:37;;;;;;;5.63;3.43;;;;;;;;;;5092949;28;20536;-74
2023/06/07 11:43:05;;;;;;;3.30;3.00;;;;;;;;;;5081222;28;20488;-74
2023/06/07 11:45:33;;;;;;;3.90;3.53;;;;;;;;;;5072709;28;20901;-74
2023/06/07 11:48:02;;;;;;;6.30;3.20;;;;;;;;;;5084505;28;20447;-74
2023/06/07 11:50:29;;;;;;;4.53;4.17;;;;;;;;;;5092395;28;20475;-74
2023/06/07 11:52:57;;;;;;;4.00;3.30;;;;;;;;;;5092477;28;20450;-74
2023/06/07 11:55:24;;;;;;;3.40;3.07;;;;;;;;;;5092614;28;20451;-74
2023/06/07 11:57:53;;;;;;;4.63;2.83;;;;;;;;;;5092504;28;20461;-74
2023/06/07 12:00:23;;;;;;;7.23;3.30;;;;;;;;;;5092412;28;20525;-74
2023/06/07 12:02:51;;;;;;;3.30;3.10;;;;;;;;;;5092859;28;20487;-74
2023/06/07 12:05:18;;;;;;;3.90;3.30;;;;;;;;;;5092792;28;20450;-74
2023/06/07 12:07:55;;;;;;;3.33;3.03;;;;;;;;;;5092438;28;20455;-74
2023/06/07 12:10:24;;;;;;;3.63;3.33;;;;;;;;;;5092476;28;20478;-74
2023/06/07 12:13:04;;;;;;;6.93;3.47;;;;;;;;;;5092371;28;20447;-74
2023/06/07 12:15:34;;;;;;;3.07;2.80;;;;;;;;;;5085964;28;20970;-76
2023/06/07 12:18:01;;;;;;;5.30;3.40;;;;;;;;;;5090168;28;20494;-74
2023/06/07 12:20:28;;;;;;;3.47;3.17;;;;;;;;;;5092494;28;20985;-74
2023/06/07 12:23:03;;;;;;;3.17;2.97;;;;;;;;;;5092235;28;20482;-74
2023/06/07 12:25:30;;;;;;;7.63;3.80;;;;;;;;;;5092617;28;20902;-74
2023/06/07 12:27:58;;;;;;;3.87;3.07;;;;;;;;;;5092915;28;20802;-74
2023/06/07 12:30:34;;;;;;;3.93;3.60;;;;;;;;;;5093930;28;20502;-73
2023/06/07 12:33:01;;;;;;;4.97;3.70;;;;;;;;;;5088564;28;20455;-74
2023/06/07 12:35:37;;;;;;;4.00;3.70;;;;;;;;;;5077516;28;20845;-74
2023/06/07 12:38:04;;;;;;;3.47;3.17;;;;;;;;;;5096180;28;20450;-74
2023/06/07 12:40:31;;;;;;;4.40;3.37;;;;;;;;;;5079628;28;20486;-74
2023/06/07 12:42:58;;;;;;;3.60;3.30;;;;;;;;;;5075674;28;20490;-74
2023/06/07 12:45:25;;;;;;;4.33;3.20;;;;;;;;;;5078546;28;20457;-74
2023/06/07 12:47:54;;;;;;;6.20;3.60;;;;;;;;;;5095953;28;20454;-73
2023/06/07 12:50:21;;;;;;;4.57;3.60;;;;;;;;;;5096211;28;21039;-73
2023/06/07 12:52:48;;;;;;;3.17;2.90;;;;;;;;;;5096128;28;20876;-73
2023/06/07 12:55:16;;;;;;;4.33;3.73;;;;;;;;;;5092172;28;20458;-74
2023/06/07 12:57:43;;;;;;;4.53;3.87;;;;;;;;;;5075654;28;20460;-74
2023/06/07 13:00:11;;;;;;;3.47;3.17;;;;;;;;;;5075629;28;20479;-74
2023/06/07 13:02:38;;;;;;;5.50;4.17;;;;;;;;;;5087043;28;20481;-73
2023/06/07 13:05:08;;;;;;;7.00;3.87;;;;;;;;;;5095529;28;20453;-75
2023/06/07 13:07:35;;;;;;;5.80;3.70;;;;;;;;;;5095823;28;20523;-76
2023/06/07 13:10:03;;;;;;;4.10;3.70;;;;;;;;;;5076559;28;20483;-76
2023/06/07 13:12:30;;;;;;;6.43;4.40;;;;;;;;;;5087987;28;20826;-76
2023/06/07 13:14:58;;;;;;;3.70;3.40;;;;;;;;;;5089160;28;20439;-76
2023/06/07 13:17:25;;;;;;;5.90;5.30;;;;;;;;;;5075528;28;20819;-76
2023/06/07 13:19:52;;;;;;;4.00;2.67;;;;;;;;;;5075272;28;20900;-76
2023/06/07 13:22:21;;;;;;;3.70;2.97;;;;;;;;;;5088943;28;20966;-74
2023/06/07 13:24:48;;;;;;;5.60;3.67;;;;;;;;;;5095608;28;20942;-74
2023/06/07 13:27:15;;;;;;;5.60;4.23;;;;;;;;;;5094852;28;20455;-73
2023/06/07 13:29:42;;;;;;;4.07;3.67;;;;;;;;;;5082584;28;20466;-73
2023/06/07 13:32:10;;;;;;;3.60;3.30;;;;;;;;;;5094170;28;20458;-74
2023/06/07 13:34:37;;;;;;;8.93;3.83;;;;;;;;;;5074981;28;20539;-73
2023/06/07 13:37:04;;;;;;;4.20;3.80;;;;;;;;;;5074770;28;20440;-74
2023/06/07 13:39:33;;;;;;;3.90;3.60;;;;;;;;;;5074690;28;20814;-74
2023/06/07 13:42:00;;;;;;;4.50;3.17;;;;;;;;;;5074790;28;20909;-74
2023/06/07 13:44:28;;;;;;;3.60;3.30;;;;;;;;;;5075202;28;20859;-74
2023/06/07 13:46:55;;;;;;;3.63;3.33;;;;;;;;;;5074530;28;20459;-74
2023/06/07 13:49:22;;;;;;;3.67;3.30;;;;;;;;;;5074653;28;20477;-74
2023/06/07 13:51:49;;;;;;;7.00;3.73;;;;;;;;;;5088323;28;20447;-74
2023/06/07 13:54:16;;;;;;;3.80;3.50;;;;;;;;;;5074725;28;20901;-74
2023/06/07 13:56:45;;;;;;;6.40;3.50;;;;;;;;;;5074300;28;20840;-74
2023/06/07 13:59:13;;;;;;;4.00;3.40;;;;;;;;;;5083927;28;20493;-74
2023/06/07 14:01:40;;;;;;;4.67;3.97;;;;;;;;;;5094858;28;20466;-74
2023/06/07 14:04:08;;;;;;;6.63;4.03;;;;;;;;;;5094536;28;20995;-74
2023/06/07 14:06:37;;;;;;;4.87;3.93;;;;;;;;;;5076995;28;20455;-73
2023/06/07 14:09:04;;;;;;;3.40;3.10;;;;;;;;;;5074374;28;20480;-73
2023/06/07 14:11:34;;;;;;;4.60;3.90;;;;;;;;;;5078483;28;20443;-73
2023/06/07 14:14:02;;;;;;;4.53;3.40;;;;;;;;;;5094480;28;20556;-73
2023/06/07 14:16:29;;;;;;;5.90;4.00;;;;;;;;;;5089157;28;20885;-73
2023/06/07 14:18:57;;;;;;;8.33;4.00;;;;;;;;;;5074292;28;20483;-73
2023/06/07 14:21:24;;;;;;;3.50;3.20;;;;;;;;;;5087573;28;20522;-73
2023/06/07 14:23:51;;;;;;;3.73;3.43;;;;;;;;;;5074140;28;20491;-73
2023/06/07 14:26:18;;;;;;;5.33;4.93;;;;;;;;;;5073980;28;20466;-73
2023/06/07 14:28:45;;;;;;;4.93;3.40;;;;;;;;;;5073744;28;20459;-75
2023/06/07 14:31:14;;;;;;;5.37;3.50;;;;;;;;;;5074314;28;20447;-75
2023/06/07 14:33:42;;;;;;;5.67;4.03;;;;;;;;;;5073969;28;20455;-75
2023/06/07 14:36:09;;;;;;;3.57;2.83;;;;;;;;;;5074052;28;20452;-75
2023/06/07 14:38:36;;;;;;;4.37;3.97;;;;;;;;;;5074667;28;20447;-75
2023/06/07 14:41:03;;;;;;;5.33;3.87;;;;;;;;;;5093486;28;20522;-75
2023/06/07 14:43:30;;;;;;;4.37;3.93;;;;;;;;;;5093673;28;20490;-75